Time;durP1;ratioP1;P1;durP2;ratioP2;P2;SDS_P1;SDS_P2;PMS_P1;PMS_P2;Temp;Humidity;BMP_temperature;BMP_pressure;BME280_temperature;BME280_humidity;BME280_pressure;Samples;Min_cycle;Max_cycle;Signal;HPM_P1;HPM_P2
2023/07/02 00:01:26;;;;;;;7.00;4.80;;;;;;;-140.66;100.00;55571.53;5133091;28;20034;-76
2023/07/02 00:04:15;;;;;;;7.88;5.15;;;;;;;-140.66;100.00;55571.53;5133863;28;20026;-75
2023/07/02 00:07:01;;;;;;;12.23;5.72;;;;;;;-140.66;100.00;55571.53;5132903;28;20148;-75
2023/07/02 00:09:47;;;;;;;12.45;5.68;;;;;;;-140.66;100.00;55571.53;5133302;28;20106;-76
2023/07/02 00:12:33;;;;;;;9.63;5.40;;;;;;;-140.66;100.00;55571.53;5136991;28;20072;-75
2023/07/02 00:15:18;;;;;;;9.15;5.55;;;;;;;-140.66;100.00;55571.53;5136533;28;20079;-76
2023/07/02 00:18:04;;;;;;;7.70;5.30;;;;;;;-140.66;100.00;55571.53;5136557;27;20088;-75
2023/07/02 00:20:50;;;;;;;9.50;5.57;;;;;;;-140.66;100.00;55571.53;5139235;27;20023;-77
2023/07/02 00:23:36;;;;;;;12.15;5.65;;;;;;;-140.66;100.00;55571.53;5137397;27;20338;-76
2023/07/02 00:26:21;;;;;;;9.52;5.65;;;;;;;-140.66;100.00;55571.53;5141646;27;20335;-76
2023/07/02 00:29:09;;;;;;;11.55;5.70;;;;;;;-140.66;100.00;55571.53;5156624;27;20449;-74
2023/07/02 00:31:54;;;;;;;12.45;5.40;;;;;;;-140.66;100.00;55571.53;5140561;27;20031;-76
2023/07/02 00:34:40;;;;;;;11.00;5.65;;;;;;;-140.66;100.00;55571.53;5138984;27;20041;-75
2023/07/02 00:37:26;;;;;;;8.32;5.35;;;;;;;-140.66;100.00;55571.53;5138384;27;20023;-75
2023/07/02 00:40:11;;;;;;;12.90;5.63;;;;;;;-140.66;100.00;55571.53;5135847;27;20023;-76
2023/07/02 00:42:57;;;;;;;13.40;5.57;;;;;;;-140.66;100.00;55571.53;5136766;27;20019;-77
2023/07/02 00:45:45;;;;;;;11.00;5.72;;;;;;;-140.66;100.00;55571.53;5140773;27;20062;-75
2023/07/02 00:48:30;;;;;;;11.70;5.72;;;;;;;-140.66;100.00;55571.53;5147440;27;20433;-76
2023/07/02 00:51:19;;;;;;;12.15;5.80;;;;;;;-140.66;100.00;55571.53;5136828;27;20027;-76
2023/07/02 00:54:05;;;;;;;11.15;6.05;;;;;;;-140.66;100.00;55571.53;5137936;27;20023;-76
2023/07/02 00:56:50;;;;;;;9.70;5.85;;;;;;;-140.66;100.00;55571.53;5137545;27;20168;-75
2023/07/02 00:59:37;;;;;;;9.73;6.10;;;;;;;-140.66;100.00;55571.53;5136196;27;20095;-75
2023/07/02 01:02:25;;;;;;;12.45;6.13;;;;;;;-140.66;100.00;55571.53;5136061;27;20092;-75
2023/07/02 01:05:15;;;;;;;10.40;6.15;;;;;;;-140.66;100.00;55571.53;5135660;27;20338;-77
2023/07/02 01:08:03;;;;;;;8.65;5.95;;;;;;;-140.66;100.00;55571.53;5136224;27;20060;-76
2023/07/02 01:10:48;;;;;;;7.28;5.93;;;;;;;-140.66;100.00;55571.53;5135840;27;20033;-76
2023/07/02 01:13:34;;;;;;;9.27;5.90;;;;;;;-140.66;100.00;55571.53;5136205;27;20026;-76
2023/07/02 01:16:22;;;;;;;6.15;5.55;;;;;;;-140.66;100.00;55571.53;5136169;27;20042;-75
2023/07/02 01:19:13;;;;;;;12.63;5.80;;;;;;;-140.66;100.00;55571.53;5149110;27;20083;-75
2023/07/02 01:21:59;;;;;;;14.40;6.30;;;;;;;-140.66;100.00;55571.53;5136090;27;20031;-75
2023/07/02 01:24:49;;;;;;;7.78;5.55;;;;;;;-140.66;100.00;55571.53;5135909;27;20027;-75
2023/07/02 01:27:35;;;;;;;11.02;5.85;;;;;;;-140.66;100.00;55571.53;5136427;27;20463;-75
2023/07/02 01:30:21;;;;;;;11.60;5.78;;;;;;;-140.66;100.00;55571.53;5136841;27;20031;-75
2023/07/02 01:33:07;;;;;;;7.20;5.68;;;;;;;-140.66;100.00;55571.53;5135843;27;20054;-76
2023/07/02 01:35:53;;;;;;;9.50;5.72;;;;;;;-140.66;100.00;55571.53;5135786;27;20019;-76
2023/07/02 01:38:38;;;;;;;11.27;5.88;;;;;;;-140.66;100.00;55571.53;5136400;27;20353;-76
2023/07/02 01:41:24;;;;;;;11.43;6.40;;;;;;;-140.66;100.00;55571.53;5135822;27;20415;-75
2023/07/02 01:44:10;;;;;;;9.15;6.18;;;;;;;-140.66;100.00;55571.53;5136232;27;20365;-75
2023/07/02 01:46:56;;;;;;;11.05;6.13;;;;;;;-140.66;100.00;55571.53;5133709;27;20049;-75
2023/07/02 01:49:42;;;;;;;8.00;5.65;;;;;;;-140.66;100.00;55571.53;5134622;27;20122;-75
2023/07/02 01:52:30;;;;;;;8.32;5.85;;;;;;;-140.66;100.00;55571.53;5135341;27;20141;-75
2023/07/02 01:55:17;;;;;;;9.23;5.90;;;;;;;-140.66;100.00;55571.53;5128587;27;20066;-75
2023/07/02 01:58:03;;;;;;;9.50;6.18;;;;;;;-140.66;100.00;55571.53;5134769;27;20031;-75
2023/07/02 02:00:48;;;;;;;8.48;5.95;;;;;;;-140.66;100.00;55571.53;5135865;27;20037;-75
2023/07/02 02:03:34;;;;;;;11.13;5.95;;;;;;;-140.66;100.00;55571.53;5135878;27;20034;-75
2023/07/02 02:06:20;;;;;;;15.60;6.05;;;;;;;-140.66;100.00;55571.53;5135746;27;20437;-74
2023/07/02 02:09:07;;;;;;;9.00;6.25;;;;;;;-140.66;100.00;55571.53;5135645;27;20041;-75
2023/07/02 02:11:53;;;;;;;13.90;6.07;;;;;;;-140.66;100.00;55571.53;5134956;27;20441;-75
2023/07/02 02:14:39;;;;;;;10.55;5.93;;;;;;;-140.66;100.00;55571.53;5135032;27;20027;-76
2023/07/02 02:17:25;;;;;;;10.40;6.20;;;;;;;-140.66;100.00;55571.53;5134549;27;20027;-75
2023/07/02 02:20:11;;;;;;;12.05;6.40;;;;;;;-140.66;100.00;55571.53;5135189;27;20050;-76
2023/07/02 02:22:57;;;;;;;13.35;6.07;;;;;;;-140.66;100.00;55571.53;5135084;27;20027;-74
2023/07/02 02:25:42;;;;;;;7.82;5.75;;;;;;;-140.66;100.00;55571.53;5135172;27;20039;-75
2023/07/02 02:28:28;;;;;;;12.02;6.97;;;;;;;-140.66;100.00;55571.53;5135814;27;20121;-75
2023/07/02 02:31:15;;;;;;;12.45;6.28;;;;;;;-140.66;100.00;55571.53;5134497;27;20438;-76
2023/07/02 02:34:00;;;;;;;15.57;6.20;;;;;;;-140.66;100.00;55571.53;5133927;27;20356;-75
2023/07/02 02:36:47;;;;;;;7.78;6.18;;;;;;;-140.66;100.00;55571.53;5134587;27;20364;-76
2023/07/02 02:39:33;;;;;;;8.77;6.47;;;;;;;-140.66;100.00;55571.53;5135040;27;20167;-75
2023/07/02 02:42:18;;;;;;;12.18;6.15;;;;;;;-140.66;100.00;55571.53;5134292;27;20345;-74
2023/07/02 02:45:05;;;;;;;8.35;5.88;;;;;;;-140.66;100.00;55571.53;5134467;27;20356;-75
2023/07/02 02:47:50;;;;;;;8.35;5.40;;;;;;;-140.66;100.00;55571.53;5134820;27;20041;-75
2023/07/02 02:50:41;;;;;;;7.82;6.05;;;;;;;-140.66;100.00;55571.53;5120173;27;20372;-75
2023/07/02 02:53:26;;;;;;;7.55;6.10;;;;;;;-140.66;100.00;55571.53;5120662;27;20037;-77
2023/07/02 02:56:12;;;;;;;12.45;6.18;;;;;;;-140.66;100.00;55571.53;5138325;27;20027;-75
2023/07/02 02:58:58;;;;;;;10.05;6.28;;;;;;;-140.66;100.00;55571.53;5157345;27;20075;-74
2023/07/02 03:01:43;;;;;;;13.55;5.88;;;;;;;-140.66;100.00;55571.53;5143129;27;20015;-75
2023/07/02 03:04:29;;;;;;;8.25;5.53;;;;;;;-140.66;100.00;55571.53;5147798;27;20091;-75
2023/07/02 03:07:15;;;;;;;7.20;5.75;;;;;;;-140.66;100.00;55571.53;5135762;27;20027;-76
2023/07/02 03:10:01;;;;;;;9.60;5.70;;;;;;;-140.66;100.00;55571.53;5133584;27;20022;-75
2023/07/02 03:12:47;;;;;;;8.85;6.10;;;;;;;-140.66;100.00;55571.53;5133810;27;20030;-75
2023/07/02 03:15:33;;;;;;;9.85;6.15;;;;;;;-140.66;100.00;55571.53;5136388;27;20023;-75
2023/07/02 03:18:19;;;;;;;8.82;5.70;;;;;;;-140.66;100.00;55571.53;5143884;27;20051;-75
2023/07/02 03:21:18;;;;;;;9.32;6.30;;;;;;;24.57;100.00;100151.78;5097764;27;20382;-75
2023/07/02 03:24:04;;;;;;;8.02;5.63;;;;;;;24.09;100.00;100147.81;5090785;28;20040;-75
2023/07/02 03:26:49;;;;;;;11.00;6.07;;;;;;;24.34;100.00;100149.31;5090876;28;20364;-76
2023/07/02 03:29:38;;;;;;;8.45;5.97;;;;;;;24.49;100.00;100150.72;5091018;28;20364;-74
2023/07/02 03:32:23;;;;;;;8.05;5.70;;;;;;;24.36;100.00;100150.03;5124639;28;20019;-76
2023/07/02 03:35:09;;;;;;;8.63;5.60;;;;;;;24.49;100.00;100151.56;5118290;28;20106;-75
2023/07/02 03:37:57;;;;;;;8.25;5.50;;;;;;;24.79;100.00;100151.69;5132654;28;20114;-75
2023/07/02 03:40:43;;;;;;;7.80;5.72;;;;;;;24.27;100.00;100157.00;5116748;28;20024;-76
2023/07/02 03:43:28;;;;;;;7.38;5.47;;;;;;;24.22;100.00;100153.03;5132081;28;20120;-75
2023/07/02 03:46:14;;;;;;;9.70;5.97;;;;;;;24.22;100.00;100153.84;5117042;28;20027;-75
2023/07/02 03:49:00;;;;;;;14.43;6.15;;;;;;;24.74;100.00;100161.94;5131453;28;20126;-76
2023/07/02 03:51:45;;;;;;;8.93;5.45;;;;;;;24.16;100.00;100164.22;5131063;28;20055;-75
2023/07/02 03:54:31;;;;;;;8.90;5.88;;;;;;;23.88;100.00;100168.25;5131272;28;20020;-75
2023/07/02 03:57:17;;;;;;;7.60;5.90;;;;;;;24.43;100.00;100165.44;5131744;28;20027;-76
2023/07/02 04:00:05;;;;;;;9.13;5.57;;;;;;;24.71;100.00;100170.25;5131914;28;20019;-75
2023/07/02 04:02:50;;;;;;;10.23;6.15;;;;;;;24.78;100.00;100174.13;5131104;28;20110;-75
2023/07/02 04:05:36;;;;;;;7.93;5.72;;;;;;;24.24;100.00;100175.16;5131639;28;20382;-74
2023/07/02 04:08:22;;;;;;;11.23;6.38;;;;;;;24.02;100.00;100180.56;5131494;28;20505;-75
2023/07/02 04:11:07;;;;;;;7.88;6.03;;;;;;;24.45;100.00;100168.88;5131388;28;20042;-75
2023/07/02 04:13:53;;;;;;;8.45;6.07;;;;;;;24.66;100.00;100179.63;5130492;28;20474;-75
2023/07/02 04:16:39;;;;;;;9.55;6.32;;;;;;;24.91;100.00;100185.50;5131111;28;20042;-76
2023/07/02 04:19:24;;;;;;;8.90;5.97;;;;;;;24.92;100.00;100176.50;5130835;28;20344;-76
2023/07/02 04:22:10;;;;;;;7.32;5.88;;;;;;;25.05;100.00;100179.81;5116709;28;20050;-74
2023/07/02 04:24:56;;;;;;;13.57;6.00;;;;;;;24.54;100.00;100172.59;5131629;28;20041;-75
2023/07/02 04:27:43;;;;;;;7.40;5.70;;;;;;;24.98;100.00;100181.31;5131105;28;20031;-75
2023/07/02 04:30:28;;;;;;;7.32;5.50;;;;;;;25.02;100.00;100177.38;5116010;28;20024;-77
2023/07/02 04:33:14;;;;;;;6.22;5.30;;;;;;;25.25;100.00;100178.09;5116961;28;20049;-75
2023/07/02 04:36:00;;;;;;;7.07;5.63;;;;;;;25.21;100.00;100182.88;5117158;28;20050;-76
2023/07/02 04:38:45;;;;;;;7.68;5.55;;;;;;;25.65;100.00;100187.09;5103059;28;20020;-75
2023/07/02 04:41:32;;;;;;;9.95;6.32;;;;;;;25.41;100.00;100182.03;5116715;28;20106;-75
2023/07/02 04:44:18;;;;;;;9.88;6.05;;;;;;;25.43;100.00;100189.97;5117933;28;20028;-75
2023/07/02 04:47:04;;;;;;;8.27;6.35;;;;;;;25.65;100.00;100190.63;5116421;28;20359;-76
2023/07/02 04:49:50;;;;;;;11.05;5.70;;;;;;;25.37;100.00;100193.16;5117738;28;20027;-75
2023/07/02 04:52:35;;;;;;;10.13;6.85;;;;;;;25.66;100.00;100196.84;5116958;28;20114;-75
2023/07/02 04:55:21;;;;;;;9.20;6.05;;;;;;;25.60;100.00;100200.06;5116810;28;20405;-75
2023/07/02 04:58:07;;;;;;;7.97;6.13;;;;;;;25.69;100.00;100205.47;5116946;28;20035;-74
2023/07/02 05:00:53;;;;;;;8.52;6.45;;;;;;;25.59;100.00;100207.25;5116979;28;20102;-76
2023/07/02 05:03:39;;;;;;;9.60;6.88;;;;;;;25.63;100.00;100210.53;5101551;28;20033;-75
2023/07/02 05:06:24;;;;;;;9.00;6.60;;;;;;;25.26;100.00;100211.97;5116902;28;20039;-75
2023/07/02 05:09:10;;;;;;;7.50;6.70;;;;;;;25.51;100.00;100208.94;5102173;28;20031;-75
2023/07/02 05:11:57;;;;;;;7.38;6.03;;;;;;;25.33;100.00;100208.69;5116303;28;20034;-75
2023/07/02 05:14:42;;;;;;;9.52;6.45;;;;;;;25.60;100.00;100210.81;5116439;28;20411;-75
2023/07/02 05:17:28;;;;;;;9.40;6.65;;;;;;;24.58;100.00;100201.69;5116765;28;20462;-75
2023/07/02 05:20:14;;;;;;;10.95;6.20;;;;;;;24.74;100.00;100199.47;5101737;28;20050;-76
2023/07/02 05:23:00;;;;;;;8.65;6.40;;;;;;;25.40;100.00;100199.09;5115889;28;20023;-74
2023/07/02 05:25:45;;;;;;;7.97;6.80;;;;;;;25.86;100.00;100206.66;5116382;28;20046;-75
2023/07/02 05:28:31;;;;;;;8.57;6.47;;;;;;;24.92;100.00;100203.28;5116420;28;20031;-75
2023/07/02 05:31:17;;;;;;;7.13;6.43;;;;;;;25.57;100.00;100195.81;5115086;28;20022;-75
2023/07/02 05:34:03;;;;;;;10.15;6.88;;;;;;;25.38;100.00;100203.75;5116151;28;20019;-75
2023/07/02 05:36:48;;;;;;;7.40;6.57;;;;;;;25.88;100.00;100197.47;5116434;28;20039;-75
2023/07/02 05:39:34;;;;;;;10.48;6.40;;;;;;;26.31;100.00;100197.22;5115943;28;20031;-75
2023/07/02 05:42:20;;;;;;;11.60;6.72;;;;;;;26.39;100.00;100205.41;5115902;28;20069;-74
2023/07/02 05:45:06;;;;;;;10.02;5.68;;;;;;;26.57;100.00;100209.13;5116584;28;20111;-75
2023/07/02 05:47:52;;;;;;;7.55;5.90;;;;;;;26.37;100.00;100212.78;5115161;28;20038;-76
2023/07/02 05:50:37;;;;;;;7.60;5.70;;;;;;;26.37;100.00;100212.78;5117052;28;20015;-75
2023/07/02 05:53:23;;;;;;;8.23;5.40;;;;;;;26.54;100.00;100218.34;5115544;28;20057;-75
2023/07/02 05:56:09;;;;;;;8.18;6.00;;;;;;;26.63;100.00;100219.34;5101933;28;20023;-75
2023/07/02 05:58:54;;;;;;;11.50;5.47;;;;;;;26.91;100.00;100222.06;5115959;28;20032;-75
2023/07/02 06:01:40;;;;;;;10.98;6.32;;;;;;;26.15;100.00;100215.69;5116661;28;20062;-75
2023/07/02 06:04:26;;;;;;;8.95;5.78;;;;;;;26.65;100.00;100225.44;5115688;28;20019;-74
2023/07/02 06:07:11;;;;;;;7.32;5.50;;;;;;;27.48;100.00;100223.81;5116600;28;20031;-75
2023/07/02 06:09:57;;;;;;;9.75;5.78;;;;;;;27.43;100.00;100224.28;5116409;28;20012;-75
2023/07/02 06:12:43;;;;;;;10.35;6.93;;;;;;;27.95;100.00;100228.22;5115697;28;20019;-76
2023/07/02 06:15:28;;;;;;;9.13;6.47;;;;;;;27.72;100.00;100221.47;5125573;28;20019;-75
2023/07/02 06:18:14;;;;;;;12.65;7.00;;;;;;;28.01;100.00;100232.19;5121499;28;20031;-76
2023/07/02 06:21:00;;;;;;;9.07;6.03;;;;;;;28.15;100.00;100228.97;5114324;28;20486;-76
2023/07/02 06:23:46;;;;;;;8.60;6.03;;;;;;;28.27;100.00;100225.09;5100504;28;20035;-75
2023/07/02 06:26:32;;;;;;;9.50;6.00;;;;;;;29.28;100.00;100224.63;5101025;28;20032;-75
2023/07/02 06:29:17;;;;;;;12.80;6.93;;;;;;;28.68;100.00;100224.56;5100537;28;20031;-75
2023/07/02 06:32:03;;;;;;;10.23;6.63;;;;;;;29.13;100.00;100223.47;5116165;28;20024;-76
2023/07/02 06:34:49;;;;;;;10.48;6.95;;;;;;;28.78;100.00;100230.72;5115644;28;20093;-76
2023/07/02 06:37:35;;;;;;;8.82;7.00;;;;;;;28.57;100.00;100219.41;5114981;28;20098;-75
2023/07/02 06:40:22;;;;;;;10.77;6.80;;;;;;;28.60;100.00;100217.22;5115510;28;20368;-75
2023/07/02 06:43:08;;;;;;;9.18;6.80;;;;;;;28.55;100.00;100219.56;5115453;28;20023;-75
2023/07/02 06:45:53;;;;;;;8.35;6.88;;;;;;;28.72;100.00;100224.09;5113985;28;20055;-75
2023/07/02 06:48:39;;;;;;;9.50;6.63;;;;;;;28.32;100.00;100218.25;5115598;28;20023;-75
2023/07/02 06:51:26;;;;;;;11.25;6.38;;;;;;;28.74;100.00;100222.09;5115299;28;20023;-76
2023/07/02 06:54:13;;;;;;;12.15;6.53;;;;;;;28.30;100.00;100214.88;5100665;28;20078;-75
2023/07/02 06:56:58;;;;;;;9.35;7.07;;;;;;;28.87;100.00;100225.25;5113699;28;20028;-75
2023/07/02 06:59:44;;;;;;;8.93;6.53;;;;;;;28.78;100.00;100226.19;5114047;28;20020;-75
2023/07/02 07:02:30;;;;;;;10.60;5.95;;;;;;;28.07;100.00;100232.44;5114170;28;20379;-75
2023/07/02 07:05:16;;;;;;;10.40;6.50;;;;;;;28.86;100.00;100226.28;5115037;28;20363;-74
2023/07/02 07:08:01;;;;;;;8.10;6.38;;;;;;;29.05;100.00;100223.41;5114824;28;20041;-75
2023/07/02 07:10:47;;;;;;;9.27;5.72;;;;;;;29.36;100.00;100230.09;5100056;28;20126;-74
2023/07/02 07:13:33;;;;;;;9.10;5.72;;;;;;;29.57;100.00;100227.03;5115033;28;20096;-78
2023/07/02 07:16:19;;;;;;;10.70;6.43;;;;;;;29.40;100.00;100233.28;5115369;28;20428;-75
2023/07/02 07:19:05;;;;;;;14.13;6.50;;;;;;;29.26;100.00;100225.78;5113162;28;20031;-76
2023/07/02 07:21:50;;;;;;;8.98;5.82;;;;;;;28.30;100.00;100235.56;5114010;28;20031;-75
2023/07/02 07:24:36;;;;;;;9.27;6.70;;;;;;;29.34;100.00;100228.53;5099771;28;20024;-75
2023/07/02 07:27:22;;;;;;;6.93;5.95;;;;;;;29.47;100.00;100234.38;5113929;28;20028;-75
2023/07/02 07:30:08;;;;;;;8.73;6.28;;;;;;;29.00;100.00;100228.44;5113972;28;20048;-75
2023/07/02 07:32:53;;;;;;;7.72;6.07;;;;;;;29.68;100.00;100240.28;5114386;28;20027;-76
2023/07/02 07:35:39;;;;;;;9.00;6.88;;;;;;;28.44;100.00;100235.09;5115047;28;20024;-76
2023/07/02 07:38:25;;;;;;;9.25;6.00;;;;;;;29.38;100.00;100230.78;5100291;28;20024;-76
2023/07/02 07:41:11;;;;;;;9.32;6.72;;;;;;;29.42;100.00;100229.47;5099942;28;20082;-76
2023/07/02 07:43:58;;;;;;;11.18;6.80;;;;;;;28.69;100.00;100232.47;5113815;28;20422;-75
2023/07/02 07:46:43;;;;;;;11.55;6.82;;;;;;;29.32;100.00;100231.41;5113767;28;20032;-75
2023/07/02 07:49:29;;;;;;;12.43;6.45;;;;;;;29.71;100.00;100232.72;5114950;28;20041;-75
2023/07/02 07:52:15;;;;;;;9.82;6.70;;;;;;;29.36;100.00;100235.47;5115050;28;20089;-76
2023/07/02 07:55:01;;;;;;;15.18;6.50;;;;;;;29.34;100.00;100232.09;5112936;28;20438;-76
2023/07/02 07:57:47;;;;;;;12.45;7.13;;;;;;;28.43;100.00;100241.47;5113133;28;20070;-76
2023/07/02 08:00:32;;;;;;;9.65;7.00;;;;;;;29.08;100.00;100241.13;5113354;28;20027;-75
2023/07/02 08:03:18;;;;;;;14.70;6.93;;;;;;;28.48;100.00;100248.09;5114328;28;20028;-75
2023/07/02 08:06:04;;;;;;;9.57;6.55;;;;;;;29.41;100.00;100235.84;5100154;28;20408;-74
2023/07/02 08:08:50;;;;;;;8.63;6.65;;;;;;;28.99;100.00;100239.34;5113154;27;20032;-75
2023/07/02 08:11:36;;;;;;;9.27;6.22;;;;;;;28.98;100.00;100251.16;5101729;28;20439;-76
2023/07/02 08:14:21;;;;;;;10.50;6.60;;;;;;;28.38;100.00;100250.00;5117253;28;20107;-76
2023/07/02 08:17:07;;;;;;;13.70;7.18;;;;;;;28.57;100.00;100262.53;5117000;28;20471;-76
2023/07/02 08:19:53;;;;;;;11.40;7.03;;;;;;;28.49;100.00;100270.53;5116999;28;20475;-76
2023/07/02 08:22:40;;;;;;;9.45;6.45;;;;;;;28.13;100.00;100269.56;5117055;28;20028;-75
2023/07/02 08:25:27;;;;;;;11.60;6.93;;;;;;;28.38;100.00;100265.31;5117496;28;20054;-75
2023/07/02 08:28:12;;;;;;;8.50;6.50;;;;;;;28.62;100.00;100260.22;5117581;28;20107;-74
2023/07/02 08:30:59;;;;;;;7.63;6.72;;;;;;;28.78;100.00;100271.19;5117186;28;20471;-75
2023/07/02 08:33:44;;;;;;;8.93;7.10;;;;;;;29.38;100.00;100273.13;5102187;28;20462;-75
2023/07/02 08:36:30;;;;;;;9.60;6.30;;;;;;;28.75;100.00;100275.03;5116684;28;20383;-75
2023/07/02 08:39:16;;;;;;;13.32;6.95;;;;;;;29.08;100.00;100268.97;5115813;28;20110;-75
2023/07/02 08:42:02;;;;;;;10.57;7.20;;;;;;;28.72;100.00;100267.25;5116145;28;20028;-75
2023/07/02 08:44:48;;;;;;;11.98;7.35;;;;;;;28.75;100.00;100260.69;5116094;28;20034;-75
2023/07/02 08:47:34;;;;;;;9.70;7.07;;;;;;;27.93;100.00;100267.09;5117205;28;20337;-75
2023/07/02 08:50:20;;;;;;;9.35;6.95;;;;;;;28.39;100.00;100261.59;5115846;28;20345;-75
2023/07/02 08:53:05;;;;;;;9.38;6.70;;;;;;;28.58;100.00;100266.91;5102023;28;20336;-75
2023/07/02 08:55:51;;;;;;;8.68;6.95;;;;;;;28.68;100.00;100271.25;5116068;28;20106;-76
2023/07/02 08:58:37;;;;;;;9.15;7.35;;;;;;;28.81;100.00;100263.63;5101509;28;20388;-75
2023/07/02 09:01:23;;;;;;;9.30;7.40;;;;;;;28.49;100.00;100265.97;5116296;28;20024;-75
2023/07/02 09:04:18;;;;;;;13.07;7.90;;;;;;;27.52;100.00;100262.91;5095515;28;20020;-75
2023/07/02 09:07:08;;;;;;;9.07;7.55;;;;;;;27.58;100.00;100269.56;5096926;28;20028;-75
2023/07/02 09:09:54;;;;;;;12.85;7.55;;;;;;;27.49;100.00;100260.53;5096334;28;20024;-75
2023/07/02 09:12:40;;;;;;;10.23;7.50;;;;;;;27.63;100.00;100259.19;5096316;28;20038;-75
2023/07/02 09:15:25;;;;;;;12.40;7.85;;;;;;;27.52;100.00;100260.22;5095419;28;20475;-76
2023/07/02 09:18:24;;;;;;;23.10;10.23;;;;;;;27.89;100.00;100263.00;5096215;28;20437;-75
2023/07/02 09:21:10;;;;;;;12.27;8.13;;;;;;;27.14;100.00;100254.88;5080884;28;20388;-75
2023/07/02 09:23:56;;;;;;;13.13;8.25;;;;;;;27.43;100.00;100256.56;5096331;28;20123;-76
2023/07/02 09:26:50;;;;;;;13.15;8.68;;;;;;;26.52;100.00;100255.22;5096141;28;20084;-75
2023/07/02 09:29:36;;;;;;;13.35;7.55;;;;;;;26.41;100.00;100267.94;5081961;28;20360;-75
2023/07/02 09:32:26;;;;;;;12.20;7.97;;;;;;;26.84;100.00;100266.63;5081758;28;20089;-75
2023/07/02 09:35:12;;;;;;;13.23;7.88;;;;;;;27.10;100.00;100269.59;5096485;28;20470;-75
2023/07/02 09:37:58;;;;;;;12.45;7.97;;;;;;;26.95;100.00;100277.25;5082427;28;20112;-76
2023/07/02 09:40:47;;;;;;;11.82;7.88;;;;;;;26.69;100.00;100273.38;5095830;28;20032;-76
2023/07/02 09:43:33;;;;;;;14.82;8.45;;;;;;;26.52;100.00;100271.34;5082328;28;20024;-75
2023/07/02 09:46:18;;;;;;;14.10;7.90;;;;;;;27.06;100.00;100277.13;5096260;28;20372;-76
2023/07/02 09:49:11;;;;;;;12.90;7.68;;;;;;;27.47;100.00;100281.34;5095421;28;20063;-77
2023/07/02 09:51:58;;;;;;;13.43;8.02;;;;;;;27.45;100.00;100272.59;5096228;28;20349;-76
2023/07/02 09:54:44;;;;;;;13.02;7.88;;;;;;;28.03;100.00;100279.53;5081823;28;20180;-75
2023/07/02 09:57:31;;;;;;;13.35;8.85;;;;;;;28.17;100.00;100283.56;5094979;28;20040;-76
2023/07/02 10:00:17;;;;;;;12.75;8.35;;;;;;;27.71;100.00;100275.47;5095923;28;20043;-75
2023/07/02 10:03:02;;;;;;;12.57;7.95;;;;;;;27.42;100.00;100279.09;5093484;28;20061;-76
2023/07/02 10:05:48;;;;;;;11.00;7.72;;;;;;;27.52;100.00;100272.84;5099958;28;20027;-75
2023/07/02 10:08:35;;;;;;;11.98;6.70;;;;;;;27.69;100.00;100275.66;5101381;28;20416;-76
2023/07/02 10:11:34;;;;;;;10.32;6.00;;;;;;;26.69;100.00;100276.06;5104193;28;20035;-75
2023/07/02 10:14:20;;;;;;;25.35;13.30;;;;;;;27.72;100.00;100272.63;5114114;28;20451;-75
2023/07/02 10:17:06;;;;;;;11.73;6.50;;;;;;;28.03;100.00;100274.13;5115800;28;20039;-74
2023/07/02 10:19:53;;;;;;;11.73;5.90;;;;;;;27.17;100.00;100268.88;5120309;28;20032;-76
2023/07/02 10:22:47;;;;;;;9.70;6.25;;;;;;;27.41;100.00;100271.16;5129848;28;20390;-75
2023/07/02 10:25:37;;;;;;;16.98;9.77;;;;;;;27.93;100.00;100265.25;5127894;28;20023;-74
2023/07/02 10:28:26;;;;;;;23.70;11.85;;;;;;;28.73;100.00;100268.09;5117023;28;20027;-75
2023/07/02 10:31:21;;;;;;;14.38;8.77;;;;;;;29.11;100.00;100257.03;5135814;28;20028;-75
2023/07/02 10:34:06;;;;;;;8.60;6.70;;;;;;;28.21;100.00;100268.81;5099655;28;20371;-76
2023/07/02 10:36:56;;;;;;;11.82;6.60;;;;;;;28.21;100.00;100266.94;5100708;28;20024;-75
2023/07/02 10:39:41;;;;;;;9.80;6.85;;;;;;;28.14;100.00;100265.88;5114902;28;20451;-76
2023/07/02 10:42:27;;;;;;;11.52;6.55;;;;;;;28.74;100.00;100267.09;5114241;28;20020;-76
2023/07/02 10:45:13;;;;;;;11.55;6.50;;;;;;;28.89;100.00;100257.47;5114492;28;20027;-75
2023/07/02 10:48:01;;;;;;;10.32;6.80;;;;;;;28.81;100.00;100258.22;5113979;28;20096;-75
2023/07/02 10:50:47;;;;;;;9.95;6.13;;;;;;;28.48;100.00;100264.28;5113649;28;20341;-75
2023/07/02 10:53:33;;;;;;;12.95;6.40;;;;;;;28.61;100.00;100261.22;5114071;28;20096;-75
2023/07/02 10:56:18;;;;;;;9.60;6.10;;;;;;;28.56;100.00;100261.69;5100582;28;20110;-76
2023/07/02 10:59:04;;;;;;;8.35;5.75;;;;;;;28.61;100.00;100250.44;5117143;28;20042;-75
2023/07/02 11:01:51;;;;;;;9.75;6.50;;;;;;;28.86;100.00;100239.75;5125225;28;20028;-75
2023/07/02 11:04:37;;;;;;;8.30;6.03;;;;;;;28.52;100.00;100243.28;5109858;28;20027;-76
2023/07/02 11:07:23;;;;;;;11.68;6.15;;;;;;;27.73;100.00;100238.50;5114832;28;20093;-75
2023/07/02 11:10:16;;;;;;;8.45;5.93;;;;;;;28.14;100.00;100241.63;5100653;28;20058;-75
2023/07/02 11:13:16;;;;;;;9.20;6.32;;;;;;;29.00;100.00;100236.53;5115160;28;20565;-76
2023/07/02 11:16:02;;;;;;;9.82;6.05;;;;;;;29.95;100.00;100238.25;5115103;28;20020;-76
2023/07/02 11:18:47;;;;;;;12.93;5.90;;;;;;;29.48;100.00;100238.75;5114587;28;20451;-76
2023/07/02 11:21:33;;;;;;;7.80;5.45;;;;;;;30.32;100.00;100241.47;5094098;28;20032;-77
2023/07/02 11:24:33;;;;;;;6.88;5.43;;;;;;;29.63;100.00;100237.22;5094225;28;20028;-75
2023/07/02 11:27:22;;;;;;;9.43;5.47;;;;;;;30.59;100.00;100227.69;5094493;28;20119;-76
2023/07/02 11:30:09;;;;;;;7.00;5.60;;;;;;;30.40;100.00;100233.38;5079401;28;20016;-77
2023/07/02 11:32:55;;;;;;;8.95;5.93;;;;;;;30.18;100.00;100225.03;5093953;28;20452;-76
2023/07/02 11:35:43;;;;;;;6.57;5.13;;;;;;;30.07;100.00;100223.44;5094836;28;20028;-75
2023/07/02 11:38:29;;;;;;;8.45;5.05;;;;;;;29.63;100.00;100216.47;5093216;28;20039;-76
2023/07/02 11:41:15;;;;;;;8.13;5.30;;;;;;;30.36;100.00;100214.94;5094990;28;20050;-76
2023/07/02 11:44:00;;;;;;;9.02;5.13;;;;;;;29.85;100.00;100220.47;5097408;28;20096;-75
2023/07/02 11:46:47;;;;;;;8.85;5.07;;;;;;;29.68;100.00;100219.53;5098611;28;20085;-76
2023/07/02 11:49:33;;;;;;;10.20;5.20;;;;;;;29.76;100.00;100219.56;5083983;28;20463;-74
2023/07/02 11:52:18;;;;;;;6.80;5.40;;;;;;;30.61;100.00;100217.53;5098303;28;20027;-74
2023/07/02 11:55:04;;;;;;;8.18;5.28;;;;;;;30.33;100.00;100223.38;5097614;28;20112;-75
2023/07/02 11:57:50;;;;;;;9.30;5.63;;;;;;;30.73;100.00;100221.66;5097959;28;20023;-74
2023/07/02 12:00:36;;;;;;;7.45;5.20;;;;;;;30.48;100.00;100216.31;5097344;28;20039;-75
2023/07/02 12:03:22;;;;;;;8.43;5.10;;;;;;;30.26;100.00;100215.06;5096886;28;20024;-75
2023/07/02 12:06:08;;;;;;;11.25;5.45;;;;;;;30.37;100.00;100211.22;5098363;28;20028;-76
2023/07/02 12:08:53;;;;;;;9.65;5.65;;;;;;;30.76;99.16;100210.50;5096924;28;20062;-75
2023/07/02 12:11:39;;;;;;;8.93;5.22;;;;;;;31.74;93.33;100212.97;5082853;28;20111;-75
2023/07/02 12:14:25;;;;;;;9.18;5.15;;;;;;;31.76;90.25;100215.50;5097346;28;20023;-74
2023/07/02 12:17:13;;;;;;;8.50;5.85;;;;;;;31.64;90.44;100216.91;5097730;28;20329;-77
2023/07/02 12:19:59;;;;;;;7.07;5.57;;;;;;;31.12;92.27;100206.47;5107233;28;20078;-77
2023/07/02 12:22:45;;;;;;;9.80;6.28;;;;;;;31.70;85.48;100200.78;5118150;28;20031;-76
2023/07/02 12:25:31;;;;;;;9.80;6.43;;;;;;;31.88;85.98;100200.59;5117738;28;20034;-75
2023/07/02 12:28:17;;;;;;;10.27;6.10;;;;;;;31.70;85.43;100202.69;5117686;28;20027;-76
2023/07/02 12:31:02;;;;;;;7.68;6.18;;;;;;;31.37;84.17;100201.88;5116819;28;20387;-77
2023/07/02 12:33:48;;;;;;;8.10;6.55;;;;;;;31.75;84.24;100205.69;5118424;28;20359;-76
2023/07/02 12:36:34;;;;;;;9.75;6.15;;;;;;;32.15;81.10;100198.31;5117721;28;20457;-76
2023/07/02 12:39:19;;;;;;;9.35;6.05;;;;;;;32.25;81.33;100192.63;5118132;28;20039;-77